Palmyra (Cooper) Airport

PLPA · United States Minor Outlying Islands

METAR history PLPA · Palmyra (Cooper) Airport

Below you see METARs of the last few days. Select a year to browse through older METARs, from the year 2007 onwards.

May 19, 2024

Time Code Weather Temp. Visibility Ceiling Wind METAR/SPECI
21:00
V
29 °C 10 km+ - 080° 080° 3 kt METAR PLCH 200800Z 08003KT 9999 FEW020 29/26 Q1010
20:00
V
29 °C 10 km+ - 080° 080° 4 kt METAR PLCH 200700Z 08004KT 9999 FEW020 29/26 Q1009
19:00
V
29 °C 10 km+ - 080° 080° 3 kt METAR PLCH 200600Z 08003KT 9999 FEW020 29/26 Q1008
18:00
V
29 °C 10 km+ - 090° 090° 4 kt METAR PLCH 200500Z 09004KT 9999 FEW020 29/25 Q1008
17:00
V
30 °C 10 km+ - 080° 080° 4 kt METAR PLCH 200400Z 08004KT 9999 FEW020 30/25 Q1007
16:00
V
31 °C 10 km+ - 090° 090° 6 kt METAR PLCH 200300Z 09006KT 9999 FEW020 31/25 Q1007
15:00
V
31 °C 10 km+ - 080° 080° 6 kt METAR PLCH 200200Z 08006KT 9999 SCT018TCU 31/26 Q1007
14:00
V
31 °C 10 km+ - 110° 110° 7 kt METAR PLCH 200100Z 11007KT 9999 FEW018TCU 31/25 Q1007
13:00
V
32 °C 10 km+ - 090° 090° 8 kt METAR PLCH 200000Z 09008KT 9999 SCT019 32/26 Q1009
12:00
V
32 °C 10 km+ - 100° 100° 7 kt METAR PLCH 192300Z 10007KT 9999 SCT019 32/26 Q1008
11:00
V
32 °C 10 km+ - 100° 100° 8 kt METAR PLCH 192200Z 10008KT 9999 FEW018TCU 32/26 Q1008
10:00
V
31 °C 10 km+ - 110° 110° 7 kt METAR PLCH 192100Z 11007KT 9999 FEW018TCU SCT300 31/26 Q1009
09:00
V
31 °C 10 km+ - 100° 100° 7 kt METAR PLCH 192000Z 10007KT 9999 FEW018 SCT300 31/25 Q1009
08:00
V
39 °C 10 km+ - 110° 110° 6 kt METAR PLCH 191900Z 11006KT 9999 FEW018TCU SCT300 39/25 Q1010
07:00
V
27 °C 10 km+ - 110° 110° 6 kt METAR PLCH 191800Z 11006KT 9999 FEW018TCU SCT300 27/24 Q1009
06:00
V
29 °C 10 km+ 30,000 ft 110° 110° 4 kt METAR PLCH 191700Z 11004KT 9999 FEW018CB SCT040 BKN300 29/2 Q1009
05:00
V
28 °C 10 km+ 4,000 ft 110° 110° 5 kt METAR PLCH 191600Z 11005KT 9999 FEW018CB CT019 BKN040 28/25 Q1008
04:00
V
28 °C 10 km+ 30,000 ft 110° 110° 5 kt METAR PLCH 191500Z 11005KT 9999 FEW020 CT040 BKN300 28/25 Q1007
03:00
V
28 °C 10 km+ 30,000 ft 110° 110° 3 kt METAR PLCH 191400Z 11003KT 9999 FEW020 SCT040 BKN300 28/25 Q1007
02:00
V
28 °C 10 km+ 30,000 ft 110° 110° 4 kt METAR PLCH 191300Z 11004KT 9999 FEW020 CT040 BKN300 28/25 Q1007
01:00
V
28 °C 10 km+ 30,000 ft 110° 110° 5 kt METAR PLCH 191200Z 11005KT 9999 FEW020 CT040 BKN300 28/25 Q1008
00:00
V
28 °C 10 km+ 30,000 ft 110° 110° 5 kt METAR PLCH 191100Z 11005KT 9999 FEW20 CT040 BKN300 28/25 Q1009

May 18, 2024

Time Code Weather Temp. Visibility Ceiling Wind METAR/SPECI
23:00
V
0 °C 10 km+ 30,000 ft 110° 110° 5 kt METAR PLCH 191000Z 11005KT 9999 FEW019 SCT040 BKN300 Q1010
22:00
V
28 °C 10 km+ 30,000 ft 110° 110° 4 kt METAR PLCH 190900Z 11004KT 9999 FEW020 SCT040 BKN300 28/25 Q1010
21:00
V
28 °C 10 km+ 30,000 ft 110° 110° 4 kt METAR PLCH 190800Z 11004KT 9999 FEW020 SCT040 BKN300 28/25 Q1010
20:00
V
28 °C 10 km+ 30,000 ft 100° 100° 5 kt METAR PLCH 190700Z 10005KT 9999 FEW020 SCT040 BKN300 28/24 Q1010
19:00
V
27 °C 10 km+ 30,000 ft 110° 110° 4 kt METAR PLCH 190600Z 11004KT 9999 FEW020 SCT040 BKN300 27/25 Q1009
18:00
V
28 °C 10 km+ 30,000 ft 110° 110° 5 kt METAR PLCH 190500Z 11005KT 9999 FEW020 SCT100 BKN300 28/24 Q1008
17:00
V
27 °C 10 km+ 4,000 ft 100° 100° 4 kt METAR PLCH 190400Z 10004KT 9999 -SHRA SCT018TCU OVC040 27/25 Q1008
16:00
V
30 °C 10 km+ 30,000 ft 090° 090° 6 kt METAR PLCH 190300Z 09006KT 9999 FEW020 SCT100 BKN300 30/25 Q1009
15:00
V
31 °C 10 km+ 30,000 ft 090° 090° 5 kt METAR PLCH 190200Z 09005KT 9999 FEW019 SCT100 BKN300 31/25 Q1008
14:00
V
31 °C 10 km+ 30,000 ft 090° 090° 7 kt METAR PLCH 190100Z 09007KT 9999 FEW019 SCT100 BKN300 31/25 Q1008
13:00
V
31 °C 10 km+ 30,000 ft 090° 090° 6 kt METAR PLCH 190000Z 09006KT 9999 FEW020 SCT100 BKN300 31/25 Q1008
12:00
V
32 °C 10 km+ 30,000 ft 090° 090° 6 kt METAR PLCH 182300Z 09006KT 9999 FEW020 SCT100 BKN300 32/25 Q1009
11:00
V
32 °C 10 km+ - 110° 110° 4 kt METAR PLCH 182200Z 11004KT 9999 FEW020 SCT300 32/25 Q1009
10:00
V
31 °C 10 km+ - 110° 110° 6 kt METAR PLCH 182100Z 11006KT 9999 FEW020 SCT300 31/25 Q1010
09:00
V
30 °C 10 km+ - 110° 110° 6 kt METAR PLCH 182000Z 11006KT 9999 FEW020 30/24 Q1009
08:00
V
29 °C 10 km+ - 110° 110° 6 kt METAR PLCH 181900Z 11006KT 9999 SCT020 29/24 Q1009
07:00
V
29 °C 10 km+ - 100° 100° 5 kt METAR PLCH 181800Z 10005KT 9999 FEW019 29/24 Q1008
06:00
V
28 °C 10 km+ - 090° 090° 4 kt METAR PLCH 181700Z 09004KT 9999 SCT020 28/24 Q1007
05:00
V
27 °C 10 km+ - 090° 090° 4 kt METAR PLCH 181600Z 09004KT 9999 FEW018TCU 27/25 Q1005
04:00
V
27 °C 10 km+ - 100° 100° 5 kt METAR PLCH 181500Z 10005KT 9999 FEW020 27/24 Q1005
03:00
V
28 °C 10 km+ - 090° 090° 5 kt METAR PLCH 181400Z 09005KT 9999 FEW020 28/24 Q1005
02:00
V
28 °C 10 km+ - 100° 100° 4 kt METAR PLCH 181300Z 10004KT 9999 FEW020 28/25 Q1006
01:00
U
28 °C 0 m - 110° 110° 5 kt METAR PLCH 181200Z 11005KT FEW020 28/24 Q1007
00:00
V
28 °C 10 km+ - 110° 110° 5 kt METAR PLCH 181100Z 11005KT 9999 FEW020 28/24 Q1008

May 17, 2024

Time Code Weather Temp. Visibility Ceiling Wind METAR/SPECI
23:00
V
28 °C 10 km+ - 110° 110° 5 kt METAR PLCH 181000Z 11005KT 9999 FEW019 28/25 Q1009
22:00
V
28 °C 10 km+ - 110° 110° 5 kt METAR PLCH 180900Z 11005KT 9999 FEW020 28/25 Q1009
21:00
V
28 °C 10 km+ - 110° 110° 5 kt METAR PLCH 180800Z 11005KT 9999 FEW020 28/25 Q1008
20:00
V
28 °C 10 km+ - 110° 110° 5 kt METAR PLCH 180700Z 11005KT 9999 FEW019 28/26 Q1008
19:00
V
28 °C 10 km+ - 360° 360° 0 kt METAR PLCH 180600Z 1100KT 9999 FEW019 28/26 Q1007
Report a change